Time;durP1;ratioP1;P1;durP2;ratioP2;P2;SDS_P1;SDS_P2;PMS_P1;PMS_P2;Temp;Humidity;BMP_temperature;BMP_pressure;BME280_temperature;BME280_humidity;BME280_pressure;Samples;Min_cycle;Max_cycle;Signal;HPM_P1;HPM_P2
2021/03/05 00:00:33;;;;;;;13.50;5.90;;;10.40;99.10;;;11.07;53.93;101742.75;4966591;28;101998;-56
2021/03/05 00:02:59;;;;;;;14.13;6.03;;;10.40;99.80;;;11.02;51.58;101755.19;4956339;27;98057;-56
2021/03/05 00:05:26;;;;;;;19.37;5.70;;;10.40;99.70;;;11.00;52.85;101755.22;4969101;28;97401;-56
2021/03/05 00:07:51;;;;;;;12.23;4.70;;;10.20;99.30;;;11.00;52.58;101760.50;4975509;27;98382;-53
2021/03/05 00:10:28;;;;;;;20.57;6.83;;;10.20;99.90;;;10.79;50.47;101755.63;4991102;28;108601;-54
2021/03/05 00:12:55;;;;;;;18.80;6.43;;;10.10;99.20;;;10.78;51.49;101756.50;4984752;27;97428;-52
2021/03/05 00:15:24;;;;;;;14.30;6.77;;;10.00;99.20;;;10.56;50.98;101757.78;4986922;27;101284;-52
2021/03/05 00:17:49;;;;;;;17.40;7.90;;;9.90;99.30;;;10.62;50.96;101758.56;5001630;27;99507;-59
2021/03/05 00:20:19;;;;;;;18.40;5.50;;;9.90;99.00;;;10.73;53.86;101768.94;4989511;27;97491;-54
2021/03/05 00:22:45;;;;;;;16.40;5.87;;;10.00;99.10;;;10.55;52.20;101762.22;4974070;27;97508;-59
2021/03/05 00:25:11;;;;;;;15.17;5.87;;;9.90;99.80;;;10.49;54.02;101767.59;4977833;27;98106;-54
2021/03/05 00:27:37;;;;;;;14.73;5.67;;;9.80;99.90;;;10.49;54.42;101764.09;4990479;27;99885;-57
2021/03/05 00:30:07;;;;;;;18.53;6.40;;;9.70;99.90;;;10.56;55.34;101768.34;4982923;27;104042;-56
2021/03/05 00:32:34;;;;;;;16.87;5.80;;;9.70;99.90;;;10.54;55.10;101770.16;4995611;27;97470;-53
2021/03/05 00:35:01;;;;;;;18.53;6.53;;;9.70;99.90;;;10.47;50.44;101768.53;4979324;28;97075;-55
2021/03/05 00:37:26;;;;;;;15.17;5.80;;;9.70;99.30;;;10.48;51.58;101775.56;5011725;27;97747;-55
2021/03/05 00:39:52;;;;;;;15.83;5.13;;;9.80;99.50;;;10.46;53.41;101772.06;4995628;27;97086;-55
2021/03/05 00:42:18;;;;;;;11.17;4.87;;;9.70;99.60;;;10.55;52.94;101777.16;5014850;27;97168;-55
2021/03/05 00:44:44;;;;;;;13.67;4.97;;;9.70;99.90;;;10.29;52.45;101775.88;4983535;27;99568;-56
2021/03/05 00:47:10;;;;;;;15.13;4.77;;;9.60;99.90;;;10.30;52.27;101779.38;5009355;27;100560;-51
2021/03/05 00:49:36;;;;;;;13.03;5.40;;;9.50;99.90;;;10.32;50.75;101780.22;4987274;27;99078;-57
2021/03/05 00:52:02;;;;;;;11.63;3.97;;;9.60;99.50;;;10.27;53.65;101777.66;4972273;27;98588;-53
2021/03/05 00:54:28;;;;;;;13.17;5.27;;;9.50;99.90;;;10.18;53.22;101783.06;4993958;28;99890;-54
2021/03/05 00:56:54;;;;;;;10.33;4.63;;;9.40;99.90;;;10.30;56.25;101787.28;4995468;27;97980;-51
2021/03/05 00:59:20;;;;;;;16.67;5.53;;;9.40;99.90;;;10.21;53.81;101793.56;4997432;28;98456;-53
2021/03/05 01:01:45;;;;;;;15.43;5.53;;;9.40;99.90;;;10.37;55.53;101789.78;4987571;28;97049;-58
2021/03/05 01:04:11;;;;;;;16.77;5.00;;;9.50;99.90;;;10.26;52.49;101786.44;4976605;27;104382;-52
2021/03/05 01:06:37;;;;;;;13.93;5.90;;;9.50;99.90;;;10.21;53.11;101785.66;4988064;27;97378;-53
2021/03/05 01:09:04;;;;;;;13.43;5.57;;;9.40;99.90;;;10.29;53.91;101791.69;4998012;27;97070;-52
2021/03/05 01:11:31;;;;;;;13.07;5.10;;;9.40;99.90;;;10.27;53.56;101788.22;4993717;27;97371;-53
2021/03/05 01:13:57;;;;;;;14.30;5.43;;;9.40;99.90;;;10.27;55.05;101795.22;4994950;27;96743;-57
2021/03/05 01:16:23;;;;;;;16.27;5.50;;;9.40;99.90;;;10.17;52.87;101799.78;4987063;27;100157;-54
2021/03/05 01:18:50;;;;;;;16.93;6.23;;;9.30;99.90;;;10.18;53.94;101798.00;4999026;27;99086;-54
2021/03/05 01:21:16;;;;;;;14.10;5.37;;;9.30;99.90;;;10.16;53.98;101800.66;4983860;27;97367;-51
2021/03/05 01:23:42;;;;;;;12.57;6.57;;;9.30;99.90;;;10.31;55.10;101789.91;4978930;28;97091;-52
2021/03/05 01:26:10;;;;;;;12.73;5.20;;;9.30;99.90;;;10.54;55.03;101801.81;4987262;27;97042;-55
2021/03/05 01:28:40;;;;;;;13.73;6.13;;;9.50;99.90;;;10.42;52.63;101801.16;4979140;28;97238;-55
2021/03/05 01:31:07;;;;;;;13.73;6.30;;;9.50;99.90;;;10.26;53.23;101802.28;5007971;22;97051;-53
2021/03/05 01:33:33;;;;;;;15.57;6.07;;;9.40;99.90;;;10.14;52.43;101797.19;5009640;27;98746;-55
2021/03/05 01:35:59;;;;;;;14.03;6.20;;;9.30;99.90;;;10.08;53.14;101798.13;4992735;27;97743;-50
2021/03/05 01:38:25;;;;;;;19.97;7.33;;;9.20;99.90;;;9.98;53.06;101795.66;4984708;28;97240;-53
2021/03/05 01:40:51;;;;;;;20.70;7.33;;;9.10;99.90;;;9.91;54.67;101801.94;4990075;28;98075;-57
2021/03/05 01:43:18;;;;;;;19.77;7.33;;;9.10;99.90;;;10.11;53.22;101797.22;5004146;27;97903;-54
2021/03/05 01:45:46;;;;;;;21.23;8.20;;;9.20;99.90;;;10.10;52.83;101800.75;4993621;27;98379;-52
2021/03/05 01:48:18;;;;;;;17.37;7.57;;;9.30;99.90;;;10.12;54.31;101802.47;4984911;27;99373;-50
2021/03/05 01:51:08;;;;;;;17.63;8.03;;;9.30;99.90;;;10.03;53.22;101796.47;4996753;28;97377;-51
2021/03/05 01:53:33;;;;;;;20.80;8.10;;;9.30;99.90;;;10.04;53.51;101795.56;5004202;27;97074;-54
2021/03/05 01:56:01;;;;;;;16.60;8.57;;;9.20;99.90;;;10.13;53.12;101795.44;4991451;27;99914;-56
2021/03/05 01:58:27;;;;;;;23.10;8.07;;;9.30;99.90;;;10.06;52.34;101794.66;4986474;28;98660;-56
2021/03/05 02:01:15;;;;;;;20.90;8.40;;;9.40;99.80;;;10.18;51.32;101798.88;4995499;27;97023;-59
2021/03/05 02:03:41;;;;;;;15.80;8.33;;;9.50;99.20;;;10.27;52.06;101798.78;4987626;28;97184;-53
2021/03/05 02:06:07;;;;;;;22.13;9.30;;;9.50;98.60;;;10.24;53.46;101798.78;4992982;27;98086;-54
2021/03/05 02:08:32;;;;;;;17.43;8.33;;;9.50;98.50;;;10.32;51.10;101789.00;4990368;27;98241;-56
2021/03/05 02:10:58;;;;;;;18.90;8.67;;;9.70;98.60;;;10.33;55.49;101803.06;4996087;27;97192;-54
2021/03/05 02:13:24;;;;;;;23.47;9.20;;;9.70;99.10;;;10.45;54.66;101802.00;4984221;27;98061;-54
2021/03/05 02:15:51;;;;;;;17.70;8.43;;;9.70;98.30;;;10.35;52.27;101806.53;5000676;27;100608;-54
2021/03/05 02:18:34;;;;;;;22.87;9.53;;;9.70;99.40;;;10.15;51.25;101804.19;4987769;27;97187;-56
2021/03/05 02:21:31;;;;;;;21.50;10.50;;;9.60;98.90;;;10.06;52.17;101814.88;4981663;27;97066;-56
2021/03/05 02:24:09;;;;;;;26.07;10.73;;;9.50;99.70;;;9.92;52.18;101812.44;4998892;27;97460;-56
2021/03/05 02:27:23;;;;;;;25.13;10.63;;;9.40;99.20;;;10.01;56.40;101811.44;4997823;27;100354;-53
2021/03/05 02:30:21;;;;;;;20.33;8.20;;;9.30;99.90;;;9.91;53.75;101815.97;4982065;28;104547;-52
2021/03/05 02:33:05;;;;;;;25.00;10.47;;;9.30;99.90;;;9.75;53.15;101817.97;4978565;27;96810;-52
2021/03/05 02:35:32;;;;;;;25.17;11.97;;;9.20;99.90;;;9.77;53.44;101810.03;4995333;27;97023;-52
2021/03/05 02:38:04;;;;;;;23.33;12.43;;;9.20;99.90;;;9.69;53.81;101820.69;4995758;27;99887;-51
2021/03/05 02:40:40;;;;;;;25.33;11.87;;;9.10;99.90;;;9.62;53.68;101812.88;4974060;28;98258;-56
2021/03/05 02:43:21;;;;;;;31.30;13.30;;;9.00;99.90;;;9.72;52.79;101825.03;4976206;27;97592;-54
2021/03/05 02:45:58;;;;;;;20.17;9.10;;;9.10;99.90;;;10.04;54.11;101821.94;4986031;28;98651;-53
2021/03/05 02:48:30;;;;;;;25.87;12.47;;;9.30;99.90;;;9.95;55.08;101822.06;4991899;27;100619;-53
2021/03/05 02:51:02;;;;;;;28.97;13.60;;;9.30;99.90;;;10.02;52.39;101819.34;4996153;27;96724;-55
2021/03/05 02:53:30;;;;;;;31.77;14.43;;;9.40;99.90;;;10.01;54.55;101816.72;4999198;27;96986;-53
2021/03/05 02:56:03;;;;;;;32.33;13.80;;;9.30;99.90;;;10.09;54.78;101825.38;4987144;27;102910;-61
2021/03/05 02:58:31;;;;;;;33.60;14.37;;;9.40;99.90;;;10.07;52.64;101824.53;4982135;28;102097;-54
2021/03/05 03:00:57;;;;;;;29.30;14.47;;;9.40;99.70;;;9.95;52.53;101827.34;4989072;27;99113;-53
2021/03/05 03:03:24;;;;;;;28.60;14.83;;;9.40;99.80;;;9.95;52.55;101827.34;4968740;27;97081;-54
2021/03/05 03:05:51;;;;;;;31.43;15.20;;;9.40;99.70;;;9.91;54.46;101825.66;4970921;27;97903;-55
2021/03/05 03:08:20;;;;;;;30.00;15.03;;;9.30;99.90;;;10.10;55.72;101830.63;4987974;28;100398;-55
2021/03/05 03:10:47;;;;;;;30.07;15.37;;;9.50;99.90;;;10.05;53.55;101834.22;4987887;27;97373;-55
2021/03/05 03:13:15;;;;;;;25.57;13.90;;;9.50;99.90;;;10.06;53.74;101830.69;4986467;27;98405;-54
2021/03/05 03:15:42;;;;;;;30.60;14.20;;;9.50;99.90;;;10.10;53.34;101842.94;4982519;27;97326;-53
2021/03/05 03:18:12;;;;;;;23.27;11.27;;;9.50;99.90;;;10.40;54.96;101834.56;4989290;27;99549;-52
2021/03/05 03:20:39;;;;;;;23.83;13.90;;;9.60;99.90;;;10.32;53.69;101833.84;5003560;27;98589;-54
2021/03/05 03:23:06;;;;;;;28.67;13.70;;;9.60;99.90;;;10.52;53.85;101836.13;4983366;27;98214;-55
2021/03/05 03:25:32;;;;;;;18.27;8.10;;;9.90;99.90;;;10.70;57.39;101840.22;5000399;27;97473;-50
2021/03/05 03:27:58;;;;;;;28.73;13.83;;;9.90;99.90;;;10.83;56.23;101836.47;4972433;28;100299;-55
2021/03/05 03:30:25;;;;;;;27.13;14.13;;;10.00;99.90;;;10.64;52.50;101850.91;4994200;27;103192;-54
2021/03/05 03:32:53;;;;;;;26.70;14.10;;;10.00;99.90;;;10.60;54.57;101849.22;4991849;27;96851;-54
2021/03/05 03:35:20;;;;;;;28.93;14.67;;;9.90;99.90;;;10.57;55.25;101854.56;4990328;27;97475;-53
2021/03/05 03:37:46;;;;;;;14.60;9.23;;;9.70;99.90;;;10.82;56.74;101866.41;4993612;27;102400;-54
2021/03/05 03:40:20;;;;;;;28.93;16.97;;;9.90;99.90;;;10.53;53.22;101860.75;4990583;27;99920;-52
2021/03/05 03:42:48;;;;;;;29.97;16.90;;;9.80;99.90;;;10.49;55.43;101859.94;4987901;27;98853;-50
2021/03/05 03:45:19;;;;;;;19.70;11.77;;;9.70;99.90;;;10.59;56.17;101868.59;5002805;27;96980;-55
2021/03/05 03:47:45;;;;;;;11.00;6.20;;;9.70;99.90;;;10.51;56.84;101868.69;4986444;27;102191;-52
2021/03/05 03:50:23;;;;;;;20.57;9.37;;;9.60;99.90;;;10.67;54.06;101877.22;4989497;27;97309;-54
2021/03/05 03:52:54;;;;;;;12.57;8.40;;;9.90;99.90;;;10.77;53.47;101875.31;5010306;27;98383;-53
2021/03/05 03:55:20;;;;;;;22.40;13.80;;;10.00;99.90;;;10.89;52.89;101881.25;5005130;27;97121;-53
2021/03/05 03:57:51;;;;;;;16.20;10.67;;;10.20;99.90;;;10.92;55.68;101868.00;5004495;27;97708;-55
2021/03/05 04:00:18;;;;;;;26.67;16.97;;;10.20;99.90;;;10.63;55.44;101875.56;4996831;28;98003;-54
2021/03/05 04:02:50;;;;;;;23.80;17.37;;;9.90;99.90;;;10.79;52.34;101879.66;4995331;27;97097;-51
2021/03/05 04:05:24;;;;;;;25.00;17.73;;;10.00;99.90;;;11.08;53.03;101875.63;4994033;27;96184;-52
2021/03/05 04:07:51;;;;;;;20.67;14.70;;;10.40;99.90;;;11.33;51.48;101874.28;4993216;28;97512;-54
2021/03/05 04:10:18;;;;;;;22.80;17.80;;;10.70;99.30;;;11.11;51.32;101883.50;4979688;27;97540;-53
2021/03/05 04:12:46;;;;;;;23.90;18.03;;;10.50;99.10;;;10.79;51.51;101882.31;4994795;27;96980;-54
2021/03/05 04:15:13;;;;;;;24.53;17.67;;;10.20;99.40;;;10.77;51.53;101894.66;4986796;28;97088;-54
2021/03/05 04:17:39;;;;;;;25.53;18.73;;;10.10;99.80;;;10.97;54.06;101892.53;4998779;28;96862;-53
2021/03/05 04:20:08;;;;;;;17.70;14.43;;;10.20;99.90;;;10.85;51.28;101895.41;4991084;28;98160;-54
2021/03/05 04:22:34;;;;;;;20.10;16.83;;;10.10;99.60;;;11.02;55.26;101900.41;4978057;27;97314;-54
2021/03/05 04:25:01;;;;;;;22.20;18.67;;;10.10;99.80;;;10.80;55.68;101905.16;5003108;27;97231;-53
2021/03/05 04:27:27;;;;;;;20.87;17.83;;;9.90;99.90;;;10.77;54.18;101899.06;4997931;27;99827;-51
2021/03/05 04:29:53;;;;;;;21.37;17.63;;;9.90;99.90;;;10.82;52.48;101903.38;4988945;27;96867;-55
2021/03/05 04:32:18;;;;;;;23.60;17.87;;;10.00;99.90;;;10.67;51.79;101899.22;5001093;27;97345;-54
2021/03/05 04:34:44;;;;;;;21.13;16.83;;;9.90;99.70;;;10.85;51.29;101913.91;5005632;27;100583;-55
2021/03/05 04:37:10;;;;;;;8.20;6.67;;;10.00;99.90;;;11.05;55.87;101910.91;4989955;28;100338;-52
2021/03/05 04:39:36;;;;;;;19.17;15.47;;;10.10;99.90;;;11.41;51.93;101914.63;5003056;27;97681;-54
2021/03/05 04:42:02;;;;;;;17.70;15.60;;;10.70;99.90;;;11.31;51.39;101918.34;5016479;27;96950;-52
2021/03/05 04:44:28;;;;;;;13.43;10.50;;;10.70;98.00;;;11.72;49.09;101927.25;4989584;27;97058;-56
2021/03/05 04:46:53;;;;;;;13.17;10.77;;;11.20;97.00;;;12.40;49.73;101928.41;4993477;27;99007;-55
2021/03/05 04:49:19;;;;;;;10.73;9.13;;;11.90;99.20;;;12.16;49.24;101929.84;4997495;27;99976;-56
2021/03/05 04:51:45;;;;;;;16.13;14.40;;;11.80;97.30;;;12.21;48.13;101940.34;5005881;27;98789;-51
2021/03/05 04:54:11;;;;;;;9.80;8.43;;;11.80;96.60;;;12.40;50.89;101940.78;4999028;27;98020;-60
2021/03/05 04:56:36;;;;;;;15.43;12.73;;;12.00;97.20;;;12.50;48.07;101943.19;4982927;27;107139;-55
2021/03/05 04:59:03;;;;;;;14.73;13.23;;;12.10;95.70;;;13.09;48.66;101947.94;4997443;28;98259;-53
2021/03/05 05:01:29;;;;;;;15.90;12.80;;;12.80;95.20;;;12.93;45.10;101946.56;4995580;27;97394;-53
2021/03/05 05:03:55;;;;;;;6.00;5.43;;;12.70;93.90;;;13.00;50.49;101953.44;4999678;27;97335;-55
2021/03/05 05:06:21;;;;;;;6.00;4.97;;;12.50;95.90;;;13.13;50.17;101957.53;4984700;27;99136;-55
2021/03/05 05:08:47;;;;;;;11.10;9.93;;;12.60;97.90;;;13.39;46.23;101957.75;4991390;28;100135;-56
2021/03/05 05:11:13;;;;;;;8.83;7.93;;;13.00;95.50;;;13.27;49.51;101959.84;4982202;27;97096;-59
2021/03/05 05:13:39;;;;;;;14.63;11.73;;;12.80;95.80;;;13.11;46.77;101957.56;4994636;28;97194;-56
2021/03/05 05:16:05;;;;;;;11.90;10.67;;;12.60;93.20;;;13.11;44.95;101967.31;4994970;27;105700;-55
2021/03/05 05:18:31;;;;;;;14.97;13.47;;;12.50;94.30;;;12.65;46.24;101976.38;5006180;27;96932;-53
2021/03/05 05:20:57;;;;;;;16.00;14.37;;;12.00;93.20;;;12.30;44.06;101974.53;4994704;27;96986;-55
2021/03/05 05:23:23;;;;;;;16.27;14.23;;;11.70;93.10;;;11.97;44.69;101986.69;5014248;27;96987;-52
2021/03/05 05:25:49;;;;;;;17.33;14.37;;;11.30;93.80;;;11.80;49.13;101975.56;5011845;27;99270;-55
2021/03/05 05:28:15;;;;;;;9.30;8.37;;;10.90;94.80;;;11.78;50.40;101982.63;4978139;27;100987;-60
2021/03/05 05:30:40;;;;;;;7.60;6.83;;;10.80;97.10;;;11.50;53.90;101983.16;5004423;27;97336;-57
2021/03/05 05:33:06;;;;;;;13.53;11.37;;;10.50;98.70;;;11.51;53.60;101981.38;4993430;28;101771;-57
2021/03/05 05:35:32;;;;;;;5.53;5.00;;;10.50;97.90;;;11.69;53.41;101993.38;4992985;27;100028;-55
2021/03/05 05:37:58;;;;;;;12.73;11.43;;;10.70;99.20;;;11.67;52.17;101995.19;4988698;27;100500;-54
2021/03/05 05:40:26;;;;;;;14.70;13.20;;;10.70;97.20;;;11.78;48.94;101993.22;5009942;27;102070;-52
2021/03/05 05:42:52;;;;;;;15.00;11.97;;;11.00;97.70;;;11.46;52.42;101994.69;4969538;28;99599;-54
2021/03/05 05:45:18;;;;;;;15.47;13.90;;;10.60;96.80;;;11.43;51.25;101996.50;4995699;27;97585;-51
2021/03/05 05:47:45;;;;;;;16.60;14.73;;;10.60;96.70;;;11.49;48.38;101999.91;4988257;27;99618;-53
2021/03/05 05:50:11;;;;;;;14.27;12.47;;;10.70;97.50;;;11.35;50.34;101993.13;5016102;27;97011;-53
2021/03/05 05:52:40;;;;;;;14.87;12.33;;;10.60;97.20;;;11.35;49.44;102001.94;4995458;27;97001;-53
2021/03/05 05:55:08;;;;;;;15.90;14.07;;;10.50;97.00;;;11.38;50.06;102009.78;4996877;28;98941;-58
2021/03/05 05:57:38;;;;;;;11.67;9.93;;;10.50;98.40;;;11.52;53.07;102004.28;4997472;27;97319;-56
2021/03/05 06:00:07;;;;;;;8.30;7.43;;;10.60;99.60;;;11.59;51.86;102004.16;4995928;28;98409;-54
2021/03/05 06:02:34;;;;;;;15.37;13.13;;;10.70;98.60;;;11.69;51.08;102014.53;4977236;28;97230;-54
2021/03/05 06:05:00;;;;;;;7.80;6.97;;;10.90;97.10;;;11.91;53.25;102010.63;4972749;27;102999;-52
2021/03/05 06:07:28;;;;;;;14.63;13.00;;;11.00;99.90;;;11.78;47.15;102015.22;5005916;27;97280;-56
2021/03/05 06:09:53;;;;;;;13.57;11.97;;;11.10;95.90;;;11.61;49.19;102009.41;4989477;28;97127;-51
2021/03/05 06:12:20;;;;;;;16.57;13.10;;;10.80;96.30;;;11.96;48.46;102019.31;4991670;27;106025;-53
2021/03/05 06:14:46;;;;;;;14.93;12.90;;;11.10;97.70;;;11.83;45.88;102028.38;5001386;27;99786;-54
2021/03/05 06:17:13;;;;;;;11.03;9.80;;;11.20;95.20;;;12.25;46.53;102033.72;4997496;27;97059;-51
2021/03/05 06:19:39;;;;;;;12.10;10.30;;;11.50;97.40;;;12.20;51.49;102034.69;4981496;28;97011;-53
2021/03/05 06:22:26;;;;;;;12.40;11.10;;;11.50;96.00;;;12.14;51.57;102041.88;5012154;27;98801;-53
2021/03/05 06:24:51;;;;;;;9.20;8.27;;;11.30;97.00;;;12.13;48.70;102043.66;4977342;28;103940;-56
2021/03/05 06:27:18;;;;;;;11.27;9.83;;;11.30;97.60;;;12.14;48.43;102050.69;4998494;28;102729;-60
2021/03/05 06:29:49;;;;;;;11.83;10.60;;;11.30;97.40;;;12.45;50.60;102060.66;4988779;27;98005;-57
2021/03/05 06:32:17;;;;;;;5.90;4.83;;;11.70;97.60;;;12.19;48.61;102070.00;4996774;27;97421;-54
2021/03/05 06:34:51;;;;;;;6.13;5.57;;;11.50;95.70;;;11.89;45.55;102070.59;4986991;28;101738;-51
2021/03/05 06:37:20;;;;;;;6.83;6.20;;;11.30;95.30;;;11.99;49.10;102077.44;4987055;27;97389;-56
2021/03/05 06:39:57;;;;;;;12.47;10.00;;;11.20;96.30;;;11.52;47.82;102087.06;4981463;27;97181;-55
2021/03/05 06:42:23;;;;;;;10.60;9.07;;;10.80;94.60;;;11.31;45.23;102082.16;4984097;28;97340;-51
2021/03/05 06:44:49;;;;;;;6.87;6.23;;;10.60;94.40;;;11.45;53.51;102090.72;4989440;27;97153;-55
2021/03/05 06:47:16;;;;;;;12.33;10.23;;;10.50;99.20;;;10.84;46.44;102091.63;4994486;27;97254;-55
2021/03/05 06:49:45;;;;;;;10.37;9.27;;;10.20;95.00;;;10.69;47.51;102097.13;4986072;27;102482;-55
2021/03/05 06:52:12;;;;;;;10.47;9.00;;;10.00;96.10;;;10.85;48.48;102103.06;4995541;27;98101;-56
2021/03/05 06:54:41;;;;;;;9.63;8.67;;;10.00;96.90;;;10.74;48.43;102105.88;4992074;27;99826;-55
2021/03/05 06:57:09;;;;;;;12.27;8.17;;;10.00;96.60;;;10.89;54.51;102110.94;4984700;27;99308;-52
2021/03/05 06:59:45;;;;;;;10.27;8.00;;;10.00;98.00;;;10.67;48.29;102112.09;4975003;28;98653;-51
2021/03/05 07:02:14;;;;;;;10.30;8.97;;;9.80;96.40;;;10.63;48.29;102107.78;4989874;27;97453;-56
2021/03/05 07:04:48;;;;;;;11.37;8.90;;;9.90;96.50;;;10.26;47.27;102118.75;4984941;27;99387;-55
2021/03/05 07:07:15;;;;;;;9.40;8.10;;;9.50;95.90;;;10.29;48.84;102124.00;4986296;27;100387;-55
2021/03/05 07:09:42;;;;;;;5.20;3.43;;;9.50;97.00;;;10.52;56.06;102136.06;4987142;27;97366;-56
2021/03/05 07:12:22;;;;;;;9.70;7.10;;;9.50;99.90;;;10.53;56.04;102143.06;4994503;27;97304;-55
2021/03/05 07:15:09;;;;;;;8.93;6.97;;;9.50;98.30;;;10.65;50.39;102137.66;4991009;28;103796;-57
2021/03/05 07:17:36;;;;;;;8.80;6.47;;;9.70;98.30;;;10.55;47.78;102141.28;4977570;28;98256;-51
2021/03/05 07:20:04;;;;;;;6.10;5.07;;;9.80;96.20;;;10.59;49.29;102143.00;4976840;27;97770;-51
2021/03/05 07:22:30;;;;;;;8.37;6.07;;;9.80;98.20;;;10.56;46.82;102154.50;4981314;27;97038;-50
2021/03/05 07:25:01;;;;;;;8.27;5.83;;;9.80;96.40;;;10.63;50.40;102150.00;5003048;27;98037;-53
2021/03/05 07:27:37;;;;;;;3.73;3.17;;;9.70;97.40;;;10.52;49.53;102151.88;4993325;27;98895;-57
2021/03/05 07:30:05;;;;;;;6.77;5.17;;;9.60;97.40;;;10.31;48.85;102153.00;4999492;27;97220;-55
2021/03/05 07:32:49;;;;;;;4.83;3.63;;;9.50;95.90;;;10.48;48.91;102160.72;4994793;27;99966;-51
2021/03/05 07:35:33;;;;;;;4.47;3.80;;;9.50;96.70;;;10.32;47.90;102171.44;4994906;27;97453;-56
2021/03/05 07:38:01;;;;;;;6.67;4.70;;;9.50;97.00;;;10.48;47.02;102181.84;4978004;28;102330;-51
2021/03/05 07:40:31;;;;;;;5.27;4.40;;;9.70;96.40;;;10.53;53.74;102180.00;4981023;27;97375;-59
2021/03/05 07:42:59;;;;;;;4.53;3.90;;;9.60;98.90;;;10.80;50.08;102184.09;4997577;27;102446;-53
2021/03/05 07:45:25;;;;;;;6.20;4.70;;;9.90;96.20;;;10.56;46.88;102186.16;4999808;27;99561;-55
2021/03/05 07:47:54;;;;;;;6.30;3.67;;;9.80;95.40;;;10.78;53.01;102197.31;4964258;28;102730;-58
2021/03/05 07:50:25;;;;;;;3.13;2.20;;;10.00;97.20;;;11.77;48.28;102197.69;5001862;27;96821;-51
2021/03/05 07:52:57;;;;;;;6.63;4.00;;;11.10;98.70;;;11.35;43.19;102200.06;4969237;27;97053;-54
2021/03/05 07:55:41;;;;;;;6.07;2.60;;;11.00;92.40;;;12.15;51.59;102210.25;4996311;28;97023;-56
2021/03/05 07:58:07;;;;;;;4.83;3.00;;;11.60;98.00;;;12.26;51.26;102215.38;4964594;27;103552;-55
2021/03/05 08:00:48;;;;;;;2.67;2.13;;;11.70;98.10;;;12.36;46.01;102214.31;4974991;27;96859;-55
2021/03/05 08:03:17;;;;;;;4.60;3.33;;;12.00;95.50;;;12.32;45.94;102223.22;4996441;27;97093;-55
2021/03/05 08:05:48;;;;;;;4.47;3.20;;;11.90;93.30;;;12.64;41.01;102215.53;4986495;28;98148;-52
2021/03/05 08:08:25;;;;;;;3.77;1.93;;;12.50;91.00;;;13.48;48.13;102221.75;4988804;27;98168;-56
2021/03/05 08:11:05;;;;;;;6.80;4.17;;;13.10;95.50;;;13.36;39.70;102216.72;4991141;27;96822;-55
2021/03/05 08:13:44;;;;;;;2.23;2.03;;;13.40;89.00;;;13.93;47.07;102227.72;4970290;27;96886;-52
2021/03/05 08:16:28;;;;;;;2.83;2.13;;;13.80;94.60;;;14.36;45.55;102239.03;4993134;27;99977;-55
2021/03/05 08:19:06;;;;;;;5.13;3.07;;;14.40;91.90;;;13.92;38.90;102233.94;5002000;27;102564;-57
2021/03/05 08:21:50;;;;;;;2.40;1.40;;;13.90;86.10;;;14.55;45.44;102235.84;4987212;27;97801;-55
2021/03/05 08:24:28;;;;;;;2.27;2.07;;;14.40;93.40;;;14.79;44.49;102241.41;5008389;27;96938;-57
2021/03/05 08:27:13;;;;;;;2.47;1.60;;;14.70;91.80;;;15.08;43.83;102246.75;5001575;27;101805;-52
2021/03/05 08:30:11;;;;;;;3.17;1.80;;;15.10;91.20;;;15.08;36.48;102246.75;4981738;27;97528;-55
2021/03/05 08:32:43;;;;;;;3.73;1.90;;;15.50;82.90;;;14.66;43.96;102247.97;4997454;27;97894;-55
2021/03/05 08:35:31;;;;;;;1.63;1.43;;;14.50;88.00;;;15.00;44.41;102254.06;4988081;27;101204;-56
2021/03/05 08:38:06;;;;;;;2.70;2.10;;;14.80;92.20;;;14.70;44.38;102262.91;4969878;27;103882;-55
2021/03/05 08:40:44;;;;;;;2.67;2.23;;;14.40;91.30;;;15.06;44.09;102261.03;4977235;27;97270;-60
2021/03/05 08:43:09;;;;;;;3.23;1.57;;;14.90;91.30;;;15.18;43.77;102264.16;5002135;27;97098;-56
2021/03/05 08:45:54;;;;;;;2.97;2.67;;;15.10;91.50;;;15.36;38.99;102264.56;4985601;28;97270;-52
2021/03/05 08:48:37;;;;;;;5.50;3.93;;;15.50;84.50;;;15.52;42.97;102272.94;5004260;27;100768;-56
2021/03/05 08:51:15;;;;;;;1.53;1.30;;;15.60;90.00;;;15.67;42.56;102265.38;4979798;28;100141;-56
2021/03/05 08:53:57;;;;;;;1.77;1.50;;;15.80;89.30;;;15.88;42.34;102261.16;4989998;27;97227;-54
2021/03/05 08:56:29;;;;;;;2.10;1.40;;;16.00;89.70;;;16.00;42.27;102265.22;4988276;27;99721;-55
2021/03/05 08:59:15;;;;;;;1.97;1.20;;;16.20;88.90;;;16.11;41.80;102268.41;4990594;27;98747;-56
2021/03/05 09:01:41;;;;;;;2.83;1.60;;;16.40;88.00;;;16.09;38.33;102272.91;4967855;27;98329;-54
2021/03/05 09:04:18;;;;;;;1.57;1.40;;;16.40;84.30;;;15.97;42.16;102284.81;4980026;27;101554;-55
2021/03/05 09:06:58;;;;;;;2.03;1.67;;;16.10;88.60;;;16.12;41.66;102279.91;4978399;28;99016;-57
2021/03/05 09:09:30;;;;;;;1.70;1.47;;;16.40;87.70;;;16.24;41.60;102288.38;4994279;27;98816;-54
2021/03/05 09:12:11;;;;;;;5.23;4.60;;;16.50;86.70;;;15.80;33.27;102286.28;4993373;27;105558;-55
2021/03/05 09:14:38;;;;;;;6.07;3.90;;;16.10;71.80;;;15.85;34.80;102302.97;5009839;27;98117;-53
2021/03/05 09:17:06;;;;;;;2.30;1.63;;;16.10;78.30;;;15.82;41.69;102303.06;4965295;28;97314;-57
2021/03/05 09:19:43;;;;;;;3.70;1.47;;;15.80;88.00;;;15.80;41.69;102304.91;4981559;27;97283;-59
2021/03/05 09:22:25;;;;;;;1.40;1.30;;;15.70;87.60;;;15.97;41.22;102313.22;4990715;27;103363;-55
2021/03/05 09:25:02;;;;;;;5.47;3.47;;;16.10;87.20;;;16.02;40.80;102311.28;5009882;27;96985;-56
2021/03/05 09:27:39;;;;;;;3.20;2.90;;;16.20;81.50;;;15.44;40.69;102307.72;4997142;27;100261;-51
2021/03/05 09:30:24;;;;;;;1.57;1.30;;;15.50;74.90;;;15.70;41.80;102305.19;5012517;27;100522;-54
2021/03/05 09:32:59;;;;;;;2.23;1.47;;;15.60;88.40;;;15.79;41.65;102303.16;4978744;27;102200;-59
2021/03/05 09:35:30;;;;;;;4.57;4.03;;;15.80;87.30;;;15.85;39.26;102302.97;5019344;27;97144;-56
2021/03/05 09:37:57;;;;;;;1.63;1.30;;;16.00;80.00;;;16.02;41.37;102313.94;4983174;27;96977;-54
2021/03/05 09:40:26;;;;;;;3.13;2.70;;;16.20;86.20;;;16.00;40.75;102314.00;4981642;28;97559;-56
2021/03/05 09:43:02;;;;;;;4.40;2.73;;;16.20;83.10;;;16.04;40.27;102325.41;4978548;27;97008;-53
2021/03/05 09:45:52;;;;;;;2.53;1.20;;;16.20;81.40;;;16.07;40.99;102325.31;4999297;28;97454;-55
2021/03/05 09:48:29;;;;;;;4.40;1.83;;;16.20;84.10;;;15.82;41.42;102329.69;4976828;27;102996;-56
2021/03/05 09:51:09;;;;;;;6.33;1.83;;;15.80;85.80;;;15.77;41.47;102343.13;4989051;28;99894;-54
2021/03/05 09:53:37;;;;;;;4.73;2.10;;;15.70;87.30;;;15.96;41.10;102338.09;4996447;27;98569;-60
2021/03/05 09:56:05;;;;;;;6.67;3.27;;;16.00;86.20;;;16.03;38.01;102350.28;4992812;27;98068;-57
2021/03/05 09:58:31;;;;;;;6.40;2.20;;;16.20;80.30;;;16.15;40.46;102347.22;4999411;27;98694;-58
2021/03/05 10:00:58;;;;;;;7.73;3.00;;;16.40;84.70;;;16.11;38.65;102348.25;5001187;27;97670;-50
2021/03/05 10:03:25;;;;;;;6.03;3.17;;;16.40;77.90;;;16.06;40.21;102342.22;4973911;27;99267;-53
2021/03/05 10:05:51;;;;;;;6.27;2.00;;;16.20;81.40;;;15.92;41.17;102347.09;4985624;27;98808;-54
2021/03/05 10:08:25;;;;;;;8.93;1.90;;;15.90;84.40;;;15.92;39.93;102341.78;4991781;27;98829;-53
2021/03/05 10:11:07;;;;;;;5.43;4.40;;;15.90;84.00;;;15.09;41.31;102338.00;4994936;28;98584;-55
2021/03/05 10:14:02;;;;;;;11.00;2.63;;;14.90;76.80;;;15.47;40.55;102339.53;5013320;27;98285;-57
2021/03/05 10:16:32;;;;;;;5.00;4.23;;;15.30;84.10;;;14.94;33.82;102349.06;4992171;27;96941;-53
2021/03/05 10:19:12;;;;;;;6.97;4.93;;;14.90;71.60;;;14.85;39.85;102339.53;4977582;27;97108;-51
2021/03/05 10:21:46;;;;;;;6.43;5.10;;;14.70;76.60;;;13.93;37.37;102336.50;4986640;27;97350;-52